Time;durP1;ratioP1;P1;durP2;ratioP2;P2;SDS_P1;SDS_P2;PMS_P1;PMS_P2;Temp;Humidity;BMP_temperature;BMP_pressure;BME280_temperature;BME280_humidity;BME280_pressure;Samples;Min_cycle;Max_cycle;Signal;HPM_P1;HPM_P2
2021/08/21 00:00:40;;;;;;;9.27;4.22;;;;;;;20.29;53.84;100584.09;5053339;28;20047;-70
2021/08/21 00:03:10;;;;;;;7.15;4.35;;;;;;;20.05;55.08;100588.47;5054193;28;20029;-70
2021/08/21 00:05:36;;;;;;;;;;;;;;;20.13;55.60;100597.19;5053895;28;20107;-70
2021/08/21 00:08:02;;;;;;;7.72;4.05;;;;;;;20.16;55.87;100597.19;5053834;28;20396;-73
2021/08/21 00:10:28;;;;;;;7.60;4.70;;;;;;;20.01;55.61;100591.94;5053408;28;20039;-73
2021/08/21 00:12:54;;;;;;;9.30;5.00;;;;;;;19.97;56.13;100600.69;5053696;28;20028;-74
2021/08/21 00:15:20;;;;;;;10.70;5.28;;;;;;;19.95;55.77;100603.31;5053314;28;20020;-72
2021/08/21 00:17:47;;;;;;;7.65;4.80;;;;;;;19.88;55.16;100557.88;5053739;28;20035;-71
2021/08/21 00:20:13;;;;;;;6.55;4.70;;;;;;;20.30;54.74;100597.19;5053776;28;20487;-74
2021/08/21 00:22:38;;;;;;;6.75;4.57;;;;;;;20.41;54.27;100612.00;5053447;28;20487;-72
2021/08/21 00:25:05;;;;;;;10.07;4.47;;;;;;;20.33;54.51;100591.06;5053176;28;20027;-74
2021/08/21 00:27:31;;;;;;;8.32;4.82;;;;;;;20.25;55.17;100596.31;5053630;28;20036;-73
2021/08/21 00:29:56;;;;;;;9.15;4.60;;;;;;;20.26;55.14;100599.78;5052530;28;20033;-71
2021/08/21 00:32:22;;;;;;;7.88;4.35;;;;;;;20.25;55.11;100590.19;5053767;28;20111;-74
2021/08/21 00:34:48;;;;;;;6.78;4.88;;;;;;;20.11;55.53;100598.94;5053048;28;20379;-73
2021/08/21 00:37:13;;;;;;;7.70;4.57;;;;;;;19.90;55.47;100546.53;5053336;28;20490;-72
2021/08/21 00:39:39;;;;;;;7.00;4.78;;;;;;;20.05;55.79;100549.16;5053137;28;20017;-71
2021/08/21 00:42:06;;;;;;;6.50;4.82;;;;;;;20.59;54.73;100584.91;5052045;28;20025;-73
2021/08/21 00:44:33;;;;;;;9.95;5.18;;;;;;;20.69;54.22;100592.72;5052798;28;20040;-73
2021/08/21 00:47:08;;;;;;;7.25;4.88;;;;;;;20.64;54.80;100586.63;5053240;28;20471;-74
2021/08/21 00:49:34;;;;;;;9.18;4.35;;;;;;;20.77;53.92;100589.22;5052916;28;20064;-75
2021/08/21 00:52:00;;;;;;;5.82;4.63;;;;;;;20.81;54.03;100581.34;5052792;28;20036;-75
2021/08/21 00:54:26;;;;;;;6.80;4.68;;;;;;;20.53;55.11;100570.91;5048301;28;20029;-74
2021/08/21 00:56:51;;;;;;;7.68;4.80;;;;;;;20.07;57.84;100577.97;5046521;28;20056;-70
2021/08/21 00:59:17;;;;;;;6.95;5.15;;;;;;;20.25;58.10;100590.19;5053111;28;20021;-70
2021/08/21 01:01:44;;;;;;;7.28;4.97;;;;;;;20.12;58.54;100579.69;5052688;28;20025;-69
2021/08/21 01:04:09;;;;;;;6.40;4.95;;;;;;;19.98;58.85;100568.38;5052478;28;20021;-69
2021/08/21 01:06:35;;;;;;;11.90;5.30;;;;;;;19.94;58.59;100579.69;5052655;28;20032;-69
2021/08/21 01:09:01;;;;;;;7.95;4.88;;;;;;;20.01;58.16;100574.50;5052586;28;20101;-71
2021/08/21 01:11:28;;;;;;;6.80;5.30;;;;;;;19.67;57.60;100523.78;5052266;28;20107;-71
2021/08/21 01:13:54;;;;;;;9.30;5.20;;;;;;;19.92;58.13;100582.34;5052132;28;20021;-69
2021/08/21 01:16:21;;;;;;;7.18;5.38;;;;;;;19.56;57.80;100545.63;5052233;28;20029;-69
2021/08/21 01:18:47;;;;;;;8.23;5.00;;;;;;;19.81;57.54;100566.59;5052576;28;20025;-72
2021/08/21 01:21:13;;;;;;;8.00;5.22;;;;;;;19.80;58.19;100563.97;5051903;28;20021;-69
2021/08/21 01:23:38;;;;;;;8.30;5.13;;;;;;;19.59;58.49;100557.84;5037889;28;20384;-73
2021/08/21 01:26:04;;;;;;;6.40;5.00;;;;;;;19.60;58.71;100563.94;5052474;28;20025;-73
2021/08/21 01:28:29;;;;;;;7.65;5.40;;;;;;;19.78;58.56;100586.69;5052699;28;20029;-72
2021/08/21 01:30:54;;;;;;;7.95;5.40;;;;;;;19.77;59.29;100577.94;5051984;28;20025;-68
2021/08/21 01:33:20;;;;;;;8.00;5.30;;;;;;;19.71;59.55;100563.09;5052337;28;20025;-70
2021/08/21 01:35:46;;;;;;;6.10;5.00;;;;;;;19.73;59.15;100571.81;5052594;28;20119;-69
2021/08/21 01:38:11;;;;;;;7.95;5.50;;;;;;;19.63;59.57;100559.59;5066597;28;20105;-68
2021/08/21 01:40:37;;;;;;;8.43;4.93;;;;;;;19.78;59.27;100574.44;5035183;28;20061;-75
2021/08/21 01:43:03;;;;;;;7.22;5.53;;;;;;;19.73;59.12;100570.94;5039768;28;20486;-65
2021/08/21 01:45:28;;;;;;;8.38;5.43;;;;;;;19.47;59.82;100547.34;5051934;28;20104;-67
2021/08/21 01:47:54;;;;;;;9.77;5.53;;;;;;;19.31;59.65;100567.38;5051553;28;20021;-65
2021/08/21 01:50:20;;;;;;;6.57;4.90;;;;;;;19.40;60.18;100564.78;5051742;28;20028;-72
2021/08/21 01:52:52;;;;;;;7.75;5.40;;;;;;;19.40;60.18;100559.53;5049710;28;20041;-64
2021/08/21 01:55:19;;;;;;;7.05;5.30;;;;;;;19.41;59.97;100563.91;5051557;28;20610;-72
2021/08/21 01:57:45;;;;;;;8.55;5.35;;;;;;;19.38;59.78;100562.16;5050087;28;20061;-65
2021/08/21 02:00:12;;;;;;;7.53;5.00;;;;;;;19.17;60.13;100538.56;5051865;28;20478;-64
2021/08/21 02:02:37;;;;;;;9.82;5.68;;;;;;;19.14;60.93;100562.97;5051556;28;20122;-68
2021/08/21 02:05:06;;;;;;;8.48;5.28;;;;;;;19.18;60.20;100559.50;5051435;28;20064;-64
2021/08/21 02:07:31;;;;;;;9.05;6.13;;;;;;;19.01;61.11;100564.66;5050565;28;20036;-64
2021/08/21 02:09:57;;;;;;;7.60;6.05;;;;;;;18.91;60.94;100555.91;5051070;28;20017;-66
2021/08/21 02:12:23;;;;;;;7.38;5.95;;;;;;;18.49;61.43;100513.00;5051695;28;20497;-67
2021/08/21 02:14:48;;;;;;;8.10;5.85;;;;;;;18.42;63.22;100560.88;5050012;28;20017;-65
2021/08/21 02:17:15;;;;;;;9.98;5.63;;;;;;;18.37;62.76;100565.19;5051124;28;20021;-68
2021/08/21 02:19:40;;;;;;;7.82;6.15;;;;;;;18.35;62.67;100552.09;5051035;28;20036;-68
2021/08/21 02:22:06;;;;;;;7.93;5.97;;;;;;;18.22;63.22;100569.44;5051749;28;20028;-66
2021/08/21 02:24:34;;;;;;;9.77;5.47;;;;;;;18.32;63.20;100566.88;5050652;28;20380;-68
2021/08/21 02:27:01;;;;;;;9.88;5.85;;;;;;;18.30;63.14;100571.25;5051191;28;20142;-67
2021/08/21 02:29:28;;;;;;;7.63;5.97;;;;;;;18.39;63.19;100563.44;5051073;28;20029;-70
2021/08/21 02:31:57;;;;;;;9.75;6.03;;;;;;;18.25;64.26;100560.75;5051045;28;20020;-66
2021/08/21 02:34:24;;;;;;;9.90;6.53;;;;;;;18.16;65.41;100568.53;5051190;28;20035;-66
2021/08/21 02:36:50;;;;;;;11.93;6.00;;;;;;;18.09;66.08;100559.75;5050592;28;20501;-68
2021/08/21 02:39:16;;;;;;;12.00;6.38;;;;;;;18.36;65.77;100566.91;5051086;28;20028;-66
2021/08/21 02:41:42;;;;;;;7.00;5.55;;;;;;;18.38;65.21;100559.09;5050927;28;20028;-66
2021/08/21 02:44:07;;;;;;;8.57;5.85;;;;;;;18.33;65.45;100573.88;5050796;28;20108;-66
2021/08/21 02:46:33;;;;;;;7.85;5.55;;;;;;;18.26;65.59;100575.56;5051035;28;20021;-66
2021/08/21 02:48:59;;;;;;;9.30;5.97;;;;;;;18.32;64.49;100564.28;5051036;28;20036;-71
2021/08/21 02:51:24;;;;;;;9.95;6.22;;;;;;;18.33;64.67;100589.53;5050475;28;20029;-66
2021/08/21 02:53:50;;;;;;;8.20;6.60;;;;;;;18.15;64.41;100569.41;5050977;28;20059;-72
2021/08/21 02:56:15;;;;;;;6.55;5.60;;;;;;;18.27;63.94;100575.56;5050915;28;20049;-67
2021/08/21 02:58:41;;;;;;;9.15;6.07;;;;;;;18.46;63.74;100578.31;5050986;28;20032;-67
2021/08/21 03:01:06;;;;;;;9.48;6.05;;;;;;;18.47;64.04;100577.47;5050971;28;20459;-72
2021/08/21 03:03:32;;;;;;;9.10;5.82;;;;;;;18.35;65.32;100590.44;5050578;28;20079;-69
2021/08/21 03:05:58;;;;;;;8.70;5.90;;;;;;;18.51;65.26;100580.97;5050462;28;20116;-67
2021/08/21 03:08:24;;;;;;;8.20;6.28;;;;;;;18.62;64.46;100570.53;5050559;28;20470;-66
2021/08/21 03:10:49;;;;;;;8.45;6.20;;;;;;;18.45;65.61;100589.63;5051103;28;20023;-66
2021/08/21 03:13:15;;;;;;;9.18;5.65;;;;;;;18.34;65.59;100580.84;5049710;28;20025;-67
2021/08/21 03:15:40;;;;;;;7.45;5.85;;;;;;;18.47;65.29;100576.56;5050592;28;20029;-71
2021/08/21 03:18:06;;;;;;;9.07;6.03;;;;;;;18.47;65.20;100597.47;5050673;28;20033;-66
2021/08/21 03:20:31;;;;;;;11.02;5.93;;;;;;;18.62;64.92;100596.69;5050498;28;20021;-68
2021/08/21 03:22:57;;;;;;;8.27;6.25;;;;;;;18.72;64.66;100594.16;5050320;28;20557;-70
2021/08/21 03:25:22;;;;;;;9.45;6.45;;;;;;;18.66;64.58;100593.25;5050810;28;20078;-67
2021/08/21 03:27:48;;;;;;;12.23;6.43;;;;;;;18.58;64.92;100594.06;5050722;28;20471;-67
2021/08/21 03:30:14;;;;;;;10.55;5.97;;;;;;;18.31;65.71;100601.75;5050645;28;20021;-70
2021/08/21 03:32:39;;;;;;;8.98;6.40;;;;;;;18.31;65.17;100581.69;5050607;28;20029;-67
2021/08/21 03:35:06;;;;;;;11.50;5.95;;;;;;;18.17;64.90;100576.38;5050042;28;20025;-69
2021/08/21 03:37:31;;;;;;;9.07;6.18;;;;;;;18.33;64.94;100595.66;5050469;28;20060;-66
2021/08/21 03:39:57;;;;;;;15.45;6.70;;;;;;;18.24;65.16;100598.19;5050509;28;20114;-66
2021/08/21 03:42:22;;;;;;;10.35;6.40;;;;;;;18.17;65.29;100602.50;5050476;28;20043;-68
2021/08/21 03:44:48;;;;;;;12.00;6.72;;;;;;;18.20;65.33;100605.13;5050378;28;20047;-68
2021/08/21 03:47:13;;;;;;;10.88;6.50;;;;;;;17.91;64.63;100556.13;5050480;28;20090;-67
2021/08/21 03:49:39;;;;;;;9.40;6.15;;;;;;;18.18;65.74;100606.88;5050387;28;20052;-67
2021/08/21 03:52:05;;;;;;;10.30;6.55;;;;;;;18.30;66.36;100605.22;5050577;28;20029;-70
2021/08/21 03:54:30;;;;;;;8.48;6.32;;;;;;;18.42;66.60;100608.78;5050322;28;20025;-70
2021/08/21 03:56:56;;;;;;;7.65;6.05;;;;;;;18.37;66.65;100617.47;5050059;28;20146;-69
2021/08/21 03:59:21;;;;;;;10.50;6.57;;;;;;;18.24;67.41;100611.25;5050468;28;20414;-67
2021/08/21 04:01:47;;;;;;;11.57;6.63;;;;;;;18.27;67.12;100596.50;5050261;28;20033;-73
2021/08/21 04:04:12;;;;;;;11.75;7.00;;;;;;;18.23;67.85;100617.34;5051266;28;20079;-68
2021/08/21 04:06:40;;;;;;;10.63;6.43;;;;;;;18.23;66.75;100613.00;5052289;28;20048;-68
2021/08/21 04:09:05;;;;;;;12.27;6.53;;;;;;;18.18;66.74;100604.28;5053559;28;20025;-66
2021/08/21 04:11:31;;;;;;;11.68;6.38;;;;;;;18.02;66.33;100611.09;5053911;28;20079;-66
2021/08/21 04:13:56;;;;;;;12.98;6.55;;;;;;;17.95;66.60;100618.00;5053938;28;20035;-66
2021/08/21 04:16:22;;;;;;;12.57;6.38;;;;;;;17.68;66.05;100595.06;5054125;28;20083;-66
2021/08/21 04:18:48;;;;;;;14.02;6.38;;;;;;;17.90;65.71;100617.03;5053962;28;20029;-71
2021/08/21 04:21:14;;;;;;;16.92;6.43;;;;;;;17.55;66.99;100570.59;5051483;28;20108;-70
2021/08/21 04:23:39;;;;;;;12.20;6.20;;;;;;;17.84;66.75;100629.19;5034159;28;20129;-67
2021/08/21 04:26:04;;;;;;;11.07;6.38;;;;;;;17.95;66.44;100631.06;5047439;28;20025;-66
2021/08/21 04:28:32;;;;;;;8.20;6.22;;;;;;;18.03;66.71;100631.16;5035564;28;20029;-68
2021/08/21 04:30:58;;;;;;;12.68;6.70;;;;;;;18.00;67.08;100625.00;5034531;28;20112;-68
2021/08/21 04:33:24;;;;;;;12.85;6.85;;;;;;;18.02;67.16;100636.34;5043417;28;20041;-69
2021/08/21 04:35:50;;;;;;;11.82;6.68;;;;;;;17.80;66.79;100589.09;5046346;28;20029;-69
2021/08/21 04:38:18;;;;;;;11.90;6.18;;;;;;;18.16;65.80;100639.94;5053841;28;20467;-68
2021/08/21 04:40:46;;;;;;;10.52;6.53;;;;;;;18.16;65.42;100642.56;5053830;28;20032;-70
2021/08/21 04:43:12;;;;;;;7.97;6.47;;;;;;;18.13;64.46;100642.56;5053602;28;20028;-67
2021/08/21 04:45:38;;;;;;;10.73;6.55;;;;;;;17.83;64.91;100599.59;5053884;28;20494;-68
2021/08/21 04:48:03;;;;;;;10.23;6.97;;;;;;;18.02;65.96;100649.38;5051205;28;20033;-69
2021/08/21 04:50:29;;;;;;;9.00;6.88;;;;;;;17.71;65.47;100600.34;5052564;28;20066;-68
2021/08/21 04:52:54;;;;;;;6.75;6.05;;;;;;;17.77;65.74;100636.94;5053702;28;20025;-72
2021/08/21 04:55:20;;;;;;;7.15;6.45;;;;;;;17.91;65.39;100651.88;5052348;28;20025;-67
2021/08/21 04:57:46;;;;;;;9.63;6.72;;;;;;;17.89;65.39;100657.06;5053291;28;20056;-66
2021/08/21 05:00:12;;;;;;;8.60;6.60;;;;;;;17.89;65.57;100649.25;5053245;28;20024;-67
2021/08/21 05:02:38;;;;;;;11.23;7.65;;;;;;;18.02;65.83;100659.84;5053296;28;20572;-71
2021/08/21 05:05:04;;;;;;;10.48;6.72;;;;;;;18.04;66.07;100656.38;5053281;28;20021;-68
2021/08/21 05:07:29;;;;;;;12.20;6.40;;;;;;;18.14;65.30;100657.34;5053165;28;20040;-68
2021/08/21 05:09:54;;;;;;;8.65;6.88;;;;;;;18.01;65.87;100625.03;5052948;28;20118;-67
2021/08/21 05:12:20;;;;;;;8.57;6.40;;;;;;;18.27;65.34;100655.72;5053204;28;20029;-68
2021/08/21 05:14:45;;;;;;;10.50;7.20;;;;;;;18.40;66.88;100651.47;5053153;28;20440;-69
2021/08/21 05:17:11;;;;;;;9.05;6.85;;;;;;;18.56;66.17;100657.69;5052971;28;20097;-69
2021/08/21 05:19:50;;;;;;;11.63;7.72;;;;;;;18.53;65.05;100640.25;5052649;28;20445;-68
2021/08/21 05:24:47;;;;;;;9.15;7.85;;;;;;;18.67;66.11;100656.03;5052779;28;20436;-69
2021/08/21 05:27:13;;;;;;;11.20;7.13;;;;;;;18.76;66.46;100652.59;5052562;28;20029;-69
2021/08/21 05:29:38;;;;;;;12.32;7.72;;;;;;;18.79;66.17;100652.63;5052956;28;20025;-69
2021/08/21 05:32:05;;;;;;;11.82;6.75;;;;;;;18.94;64.71;100648.34;5052455;28;20570;-69
2021/08/21 05:34:31;;;;;;;12.02;6.88;;;;;;;19.14;64.89;100662.44;5052604;28;20490;-69
2021/08/21 05:36:56;;;;;;;13.25;6.85;;;;;;;19.27;63.56;100652.00;5052547;28;20032;-71
2021/08/21 05:39:22;;;;;;;9.85;6.60;;;;;;;19.38;62.97;100651.16;5052259;28;20021;-69
2021/08/21 05:41:47;;;;;;;8.02;6.38;;;;;;;19.40;62.68;100649.44;5050563;28;20044;-68
2021/08/21 05:44:13;;;;;;;9.25;6.68;;;;;;;19.43;64.65;100648.56;5052428;28;20017;-69
2021/08/21 05:46:38;;;;;;;10.63;6.68;;;;;;;19.41;63.58;100647.69;5050390;28;20041;-68
2021/08/21 05:49:04;;;;;;;11.43;6.22;;;;;;;19.49;64.84;100648.59;5052634;28;20114;-69
2021/08/21 05:51:29;;;;;;;11.40;6.32;;;;;;;19.23;62.80;100614.47;5052362;28;20032;-74
2021/08/21 05:53:58;;;;;;;8.60;6.18;;;;;;;19.45;63.75;100653.81;5052076;28;20024;-69
2021/08/21 05:56:24;;;;;;;9.48;6.25;;;;;;;19.62;64.29;100651.25;5052251;28;20076;-68
2021/08/21 05:58:49;;;;;;;7.85;6.35;;;;;;;19.82;62.19;100654.78;5051980;28;20126;-70
2021/08/21 06:01:15;;;;;;;8.10;5.70;;;;;;;20.02;60.77;100657.44;5051995;28;20068;-68
2021/08/21 06:03:40;;;;;;;12.77;6.15;;;;;;;20.18;61.08;100647.84;5052006;28;20028;-68
2021/08/21 06:06:10;;;;;;;8.48;6.32;;;;;;;20.23;61.66;100645.25;5051959;28;20032;-72
2021/08/21 06:08:35;;;;;;;9.02;5.40;;;;;;;20.23;60.16;100647.00;5049913;28;20471;-69
2021/08/21 06:11:00;;;;;;;9.18;6.05;;;;;;;20.22;61.66;100653.13;5051760;28;20094;-70
2021/08/21 06:13:26;;;;;;;11.35;5.70;;;;;;;20.31;59.29;100643.50;5051663;28;20033;-71
2021/08/21 06:15:51;;;;;;;7.10;5.18;;;;;;;20.57;58.34;100645.19;5052074;28;20111;-74
2021/08/21 06:18:17;;;;;;;7.45;5.20;;;;;;;20.48;59.35;100604.13;5051640;28;20467;-70
2021/08/21 06:20:42;;;;;;;9.25;5.30;;;;;;;20.59;57.54;100605.88;5051891;28;20047;-67
2021/08/21 06:23:08;;;;;;;7.70;5.32;;;;;;;20.77;58.49;100650.47;5051789;28;20033;-69
2021/08/21 06:25:33;;;;;;;9.65;5.25;;;;;;;20.82;58.85;100651.34;5051717;28;20020;-68
2021/08/21 06:27:59;;;;;;;10.40;5.00;;;;;;;20.82;58.14;100635.59;5051200;28;20542;-68
2021/08/21 06:30:24;;;;;;;8.75;4.80;;;;;;;20.82;58.28;100648.72;5051227;28;20453;-68
2021/08/21 06:32:50;;;;;;;7.50;5.05;;;;;;;21.01;58.01;100656.53;5051439;28;20032;-72
2021/08/21 06:35:15;;;;;;;13.90;5.60;;;;;;;21.09;58.23;100646.84;5051780;28;20025;-68
2021/08/21 06:37:41;;;;;;;8.55;5.00;;;;;;;21.24;57.33;100648.56;5045409;28;20025;-70
2021/08/21 06:40:07;;;;;;;7.13;4.97;;;;;;;21.56;55.08;100642.31;5051429;28;20055;-72
2021/08/21 06:42:32;;;;;;;8.00;5.07;;;;;;;21.79;55.46;100646.53;5051619;28;20025;-69
2021/08/21 06:44:58;;;;;;;8.52;5.18;;;;;;;21.92;55.87;100647.31;5051460;28;20025;-69
2021/08/21 06:47:23;;;;;;;7.10;5.05;;;;;;;21.98;54.47;100644.66;5051517;28;20033;-68
2021/08/21 06:49:49;;;;;;;7.57;5.13;;;;;;;22.06;53.29;100644.63;5051030;28;20028;-69
2021/08/21 06:52:14;;;;;;;7.47;4.53;;;;;;;22.26;53.68;100650.56;5051544;28;20028;-69
2021/08/21 06:54:40;;;;;;;8.07;4.85;;;;;;;22.26;52.61;100642.66;5051320;28;20107;-69
2021/08/21 06:57:05;;;;;;;7.35;4.50;;;;;;;22.46;53.38;100641.66;5051329;28;20490;-69
2021/08/21 06:59:34;;;;;;;6.90;4.38;;;;;;;22.77;51.72;100638.72;5050972;28;20086;-68
2021/08/21 07:02:02;;;;;;;6.75;4.15;;;;;;;22.84;51.14;100613.19;5051269;28;20068;-69
2021/08/21 07:04:28;;;;;;;7.30;4.27;;;;;;;23.13;52.50;100647.09;5051080;28;20032;-69
2021/08/21 07:06:53;;;;;;;5.70;4.07;;;;;;;23.19;51.04;100636.50;5042967;28;20021;-69
2021/08/21 07:09:19;;;;;;;5.85;3.90;;;;;;;23.43;50.31;100626.53;5031206;28;20034;-69
2021/08/21 07:11:44;;;;;;;9.10;4.35;;;;;;;23.67;48.69;100638.47;5031265;28;20026;-69
2021/08/21 07:14:09;;;;;;;5.68;3.85;;;;;;;23.93;47.44;100641.66;5031180;28;20030;-69
2021/08/21 07:16:35;;;;;;;6.32;4.15;;;;;;;24.02;47.27;100645.00;5031170;28;20395;-69
2021/08/21 07:19:01;;;;;;;6.80;4.13;;;;;;;24.08;46.24;100645.81;5030786;28;20025;-69
2021/08/21 07:21:27;;;;;;;9.52;4.05;;;;;;;24.14;46.21;100627.22;5031247;28;20047;-68
2021/08/21 07:23:52;;;;;;;6.20;4.07;;;;;;;24.25;46.15;100643.78;5031013;28;20479;-69
2021/08/21 07:26:17;;;;;;;7.43;3.92;;;;;;;24.32;45.50;100634.84;5030885;28;20438;-69
2021/08/21 07:28:43;;;;;;;5.15;3.58;;;;;;;24.52;45.22;100647.69;5031028;28;20454;-69
2021/08/21 07:31:08;;;;;;;6.25;3.92;;;;;;;24.63;45.58;100643.97;5031159;28;20480;-73
2021/08/21 07:33:34;;;;;;;7.32;4.05;;;;;;;24.77;43.91;100628.75;5031232;28;20021;-68
2021/08/21 07:35:59;;;;;;;6.10;4.05;;;;;;;24.80;44.10;100622.56;5030880;28;20083;-70
2021/08/21 07:38:25;;;;;;;5.65;3.70;;;;;;;24.86;43.59;100636.53;5031104;28;20037;-69
2021/08/21 07:40:51;;;;;;;5.22;3.88;;;;;;;24.97;42.91;100640.72;5034747;28;20112;-69
2021/08/21 07:43:16;;;;;;;5.75;3.85;;;;;;;25.02;45.16;100641.50;5034440;28;20030;-69
2021/08/21 07:45:45;;;;;;;5.38;3.75;;;;;;;24.99;42.92;100629.22;5035052;28;20029;-71
2021/08/21 07:48:11;;;;;;;5.82;4.00;;;;;;;25.07;44.36;100638.75;5034720;28;20037;-69
2021/08/21 07:50:36;;;;;;;5.20;3.80;;;;;;;25.10;45.02;100636.06;5032695;28;20025;-69
2021/08/21 07:53:02;;;;;;;7.70;3.70;;;;;;;24.98;43.11;100606.34;5034450;28;20033;-68
2021/08/21 07:55:27;;;;;;;7.20;3.88;;;;;;;25.08;42.65;100635.22;5034508;28;20029;-74
2021/08/21 07:57:53;;;;;;;5.55;3.90;;;;;;;24.84;42.14;100624.25;5034632;28;20050;-69
2021/08/21 08:00:19;;;;;;;10.05;3.90;;;;;;;25.00;42.71;100638.03;5034758;28;20049;-68
2021/08/21 08:02:45;;;;;;;7.53;3.67;;;;;;;25.29;41.63;100632.13;5052502;28;20454;-69
2021/08/21 08:05:10;;;;;;;5.32;3.88;;;;;;;25.09;41.62;100581.50;5054226;28;20056;-69
2021/08/21 08:07:36;;;;;;;8.57;3.83;;;;;;;25.57;40.98;100620.97;5052012;28;20742;-69
2021/08/21 08:10:02;;;;;;;7.72;4.07;;;;;;;25.66;41.31;100633.97;5053509;28;20108;-71
2021/08/21 08:12:27;;;;;;;7.70;3.65;;;;;;;25.64;40.75;100632.28;5052221;28;20039;-68
2021/08/21 08:14:53;;;;;;;7.07;4.00;;;;;;;25.59;38.64;100631.50;5052347;28;20029;-72
2021/08/21 08:17:18;;;;;;;6.22;3.85;;;;;;;25.59;42.13;100629.72;5051679;28;20078;-71
2021/08/21 08:19:44;;;;;;;8.70;4.53;;;;;;;25.71;39.49;100635.63;5053399;28;20082;-71
2021/08/21 08:22:09;;;;;;;4.95;3.70;;;;;;;25.71;42.07;100618.00;5049098;28;20029;-70
2021/08/21 08:24:35;;;;;;;7.55;3.60;;;;;;;25.95;42.49;100620.97;5053261;28;20497;-69
2021/08/21 08:27:00;;;;;;;8.18;3.72;;;;;;;26.12;40.46;100615.25;5053644;28;20063;-70
2021/08/21 08:29:26;;;;;;;5.05;3.20;;;;;;;26.28;40.56;100616.63;5053807;28;20044;-74
2021/08/21 08:31:51;;;;;;;7.88;3.50;;;;;;;26.31;37.05;100610.38;5053258;28;20029;-70
2021/08/21 08:34:16;;;;;;;7.82;3.75;;;;;;;26.46;37.06;100612.63;5053151;28;20100;-69
2021/08/21 08:36:42;;;;;;;11.52;3.97;;;;;;;26.61;36.87;100600.72;5053006;28;20398;-69
2021/08/21 08:39:07;;;;;;;9.20;4.30;;;;;;;26.63;37.41;100596.28;5053195;28;20049;-70
2021/08/21 08:41:34;;;;;;;7.55;4.10;;;;;;;26.54;41.53;100593.88;5046158;28;20033;-69
2021/08/21 08:44:02;;;;;;;5.70;3.53;;;;;;;26.43;38.87;100599.47;5048757;28;20033;-71
2021/08/21 08:46:27;;;;;;;11.63;4.03;;;;;;;25.98;37.75;100539.75;5047901;28;20032;-69
2021/08/21 08:48:53;;;;;;;7.93;4.57;;;;;;;26.21;36.68;100593.88;5046421;28;20049;-69
2021/08/21 08:51:20;;;;;;;7.95;4.20;;;;;;;26.40;37.01;100602.19;5033780;28;20415;-72
2021/08/21 08:53:45;;;;;;;9.45;3.85;;;;;;;26.66;36.44;100583.88;5050667;28;20056;-71
2021/08/21 08:56:13;;;;;;;6.70;3.67;;;;;;;27.03;35.36;100589.00;5050091;28;20076;-70
2021/08/21 08:58:38;;;;;;;12.30;4.45;;;;;;;27.22;34.77;100586.66;5050477;28;20100;-69
2021/08/21 09:01:04;;;;;;;9.90;4.10;;;;;;;27.41;35.98;100579.00;5050375;28;20115;-71
2021/08/21 09:03:30;;;;;;;6.68;3.95;;;;;;;27.60;37.29;100583.72;5050637;28;20536;-69
2021/08/21 09:05:55;;;;;;;4.68;3.75;;;;;;;27.50;38.50;100537.22;5025344;28;20049;-69
2021/08/21 09:08:29;;;;;;;5.15;3.40;;;;;;;27.78;38.12;100566.38;5050049;28;20086;-74
2021/08/21 09:10:56;;;;;;;8.50;3.58;;;;;;;27.98;35.15;100571.00;5050806;28;20029;-68
2021/08/21 09:13:22;;;;;;;5.70;3.75;;;;;;;27.98;33.72;100571.00;5050664;28;20391;-71
2021/08/21 09:16:01;;;;;;;6.10;3.90;;;;;;;28.05;35.00;100563.72;5050560;28;20033;-71
2021/08/21 09:18:31;;;;;;;5.47;3.80;;;;;;;28.29;33.42;100569.09;5031072;28;20041;-75
2021/08/21 09:20:58;;;;;;;4.55;3.35;;;;;;;28.49;33.39;100569.25;5035445;28;20518;-69
2021/08/21 09:23:34;;;;;;;9.57;3.78;;;;;;;28.43;32.32;100545.56;5032207;28;20067;-69
2021/08/21 09:26:24;;;;;;;6.30;3.95;;;;;;;28.56;33.44;100568.13;5034335;28;20026;-68
2021/08/21 09:28:51;;;;;;;8.40;3.60;;;;;;;28.48;34.55;100571.97;5036446;28;20076;-67
2021/08/21 09:31:20;;;;;;;6.20;3.22;;;;;;;28.19;31.30;100534.06;5033361;28;20376;-70
2021/08/21 09:33:54;;;;;;;5.80;3.23;;;;;;;28.35;32.08;100558.25;5034630;28;20079;-70
2021/08/21 09:36:40;;;;;;;5.88;3.47;;;;;;;28.55;31.73;100561.06;5032126;28;20033;-72
2021/08/21 09:39:08;;;;;;;7.25;3.55;;;;;;;28.87;32.36;100563.47;5037141;28;20388;-69
2021/08/21 09:41:55;;;;;;;7.45;3.50;;;;;;;29.03;33.09;100556.63;5032012;28;20103;-69
2021/08/21 09:44:29;;;;;;;6.53;3.08;;;;;;;29.15;30.42;100562.41;5032264;28;20056;-68
2021/08/21 09:47:13;;;;;;;6.10;3.30;;;;;;;29.18;30.63;100562.28;5032506;28;20037;-72
2021/08/21 09:49:40;;;;;;;6.15;3.20;;;;;;;29.46;31.62;100555.88;5031515;28;20025;-72
2021/08/21 09:52:10;;;;;;;5.88;3.10;;;;;;;29.71;30.61;100542.47;5035611;28;20147;-71
2021/08/21 09:54:36;;;;;;;5.25;3.20;;;;;;;29.88;32.38;100556.84;5030405;28;20025;-69
2021/08/21 09:57:02;;;;;;;7.90;3.70;;;;;;;29.90;31.16;100555.88;5030561;28;20053;-70
2021/08/21 09:59:37;;;;;;;6.40;3.40;;;;;;;29.83;29.96;100543.72;5030702;28;20044;-69
2021/08/21 10:02:13;;;;;;;7.05;3.60;;;;;;;29.81;28.88;100526.97;5032114;28;20022;-72
2021/08/21 10:04:42;;;;;;;6.40;3.70;;;;;;;29.68;30.09;100538.13;5033179;28;20029;-69
2021/08/21 10:07:13;;;;;;;7.65;3.75;;;;;;;29.61;30.29;100534.00;5031752;28;20029;-70
2021/08/21 10:09:39;;;;;;;6.93;3.42;;;;;;;29.66;28.33;100533.81;5031196;28;20037;-72
2021/08/21 10:12:08;;;;;;;4.32;2.92;;;;;;;29.99;27.85;100543.97;5030729;28;20498;-71
2021/08/21 10:14:34;;;;;;;4.70;3.30;;;;;;;30.16;29.31;100532.59;5030290;28;20037;-68
2021/08/21 10:17:01;;;;;;;84.72;57.90;;;;;;;30.14;30.64;100535.28;5030386;28;20051;-68
2021/08/21 10:19:27;;;;;;;34.22;29.40;;;;;;;29.86;29.62;100493.03;5031874;28;20023;-71
2021/08/21 10:21:58;;;;;;;16.02;10.55;;;;;;;30.06;29.68;100516.16;5031357;28;20017;-66
2021/08/21 10:24:39;;;;;;;35.38;28.98;;;;;;;29.78;31.06;100485.34;5032343;28;20033;-67
2021/08/21 10:27:26;;;;;;;11.73;7.75;;;;;;;30.10;28.72;100522.22;5030193;28;20072;-68
2021/08/21 10:30:03;;;;;;;6.78;4.53;;;;;;;30.56;28.48;100520.16;5035227;28;20059;-65
2021/08/21 10:32:34;;;;;;;7.07;3.72;;;;;;;30.72;27.19;100516.78;5030895;28;20029;-66
2021/08/21 10:35:00;;;;;;;8.35;4.90;;;;;;;30.67;26.80;100501.03;5046569;28;20033;-69
2021/08/21 10:37:35;;;;;;;12.60;4.95;;;;;;;30.61;27.79;100478.19;5031410;28;20024;-66
2021/08/21 10:40:28;;;;;;;35.40;19.58;;;;;;;31.04;27.53;100517.94;5046724;28;20410;-68
2021/08/21 10:42:58;;;;;;;19.23;12.95;;;;;;;31.09;27.80;100507.94;5050920;28;20086;-71
2021/08/21 10:45:48;;;;;;;50.08;27.17;;;;;;;31.10;27.79;100508.81;5051098;28;20028;-68
2021/08/21 10:48:13;;;;;;;9.88;5.55;;;;;;;30.92;27.81;100471.41;5050588;28;20035;-69
2021/08/21 10:50:43;;;;;;;14.48;8.85;;;;;;;31.11;27.81;100489.19;5047310;28;20029;-68
2021/08/21 10:53:09;;;;;;;8.20;3.67;;;;;;;31.41;28.81;100510.81;5029514;28;20660;-71
2021/08/21 10:55:42;;;;;;;8.30;5.22;;;;;;;31.46;27.26;100500.78;5030526;28;20022;-71
2021/08/21 10:58:15;;;;;;;6.13;3.78;;;;;;;31.62;26.23;100503.53;5029816;28;20041;-71
2021/08/21 11:00:46;;;;;;;7.70;3.42;;;;;;;31.67;25.07;100492.66;5036201;28;20037;-72
2021/08/21 11:03:14;;;;;;;7.55;4.25;;;;;;;31.67;27.63;100492.66;5033977;28;20125;-70
2021/08/21 11:05:57;;;;;;;9.37;4.83;;;;;;;31.90;25.95;100499.50;5031011;28;20038;-72
2021/08/21 11:08:28;;;;;;;17.20;15.43;;;;;;;31.98;26.82;100484.88;5030374;28;20292;-71
2021/08/21 11:11:34;;;;;;;14.57;7.45;;;;;;;32.14;27.73;100480.47;5029367;28;20120;-71
2021/08/21 11:14:05;;;;;;;13.13;7.78;;;;;;;31.91;27.05;100473.66;5013800;28;20049;-70
2021/08/21 11:16:49;;;;;;;19.83;9.57;;;;;;;31.84;27.88;100483.81;5016855;28;20051;-71
2021/08/21 11:19:42;;;;;;;6.05;3.40;;;;;;;31.34;26.14;100480.06;5016396;28;20033;-71
2021/08/21 11:22:11;;;;;;;9.63;4.15;;;;;;;31.53;26.77;100480.00;5011794;28;20044;-70
2021/08/21 11:24:37;;;;;;;;;;;;;;;31.88;25.67;100474.69;5014176;28;20041;-70
2021/08/21 11:27:27;;;;;;;6.95;3.38;;;;;;;32.22;25.28;100477.41;5029760;28;19928;-72